createdAt,value
2024-02-29T00:00:53.953Z,101469.17
2024-02-29T00:03:23.808Z,101468.64
2024-02-29T00:05:55.182Z,101464.90
2024-02-29T00:08:24.992Z,101464.91
2024-02-29T00:10:54.656Z,101462.64
2024-02-29T00:13:27.482Z,101459.85
2024-02-29T00:15:57.147Z,101457.10
2024-02-29T00:18:26.905Z,101453.35
2024-02-29T00:20:56.576Z,101448.18
2024-02-29T00:23:26.356Z,101446.00
2024-02-29T00:25:56.070Z,101446.83
2024-02-29T00:28:25.788Z,101449.64
2024-02-29T00:30:55.529Z,101445.05
2024-02-29T00:33:25.388Z,101447.16
2024-02-29T00:36:05.068Z,101445.73
2024-02-29T00:38:40.087Z,101444.70
2024-02-29T00:41:09.838Z,101438.55
2024-02-29T00:43:41.792Z,101437.65
2024-02-29T00:46:14.148Z,101434.98
2024-02-29T00:48:43.871Z,101433.17
2024-02-29T00:51:13.610Z,101429.49
2024-02-29T00:53:43.260Z,101424.00
2024-02-29T00:56:15.545Z,101417.69
2024-02-29T00:58:45.252Z,101410.83
2024-02-29T01:01:15.198Z,101408.41
2024-02-29T01:03:45.043Z,101404.23
2024-02-29T01:06:17.352Z,101407.24
2024-02-29T01:08:47.184Z,101403.56
2024-02-29T01:11:16.934Z,101402.52
2024-02-29T01:13:46.721Z,101396.16
2024-02-29T01:16:19.614Z,101394.41
2024-02-29T01:18:49.457Z,101387.55
2024-02-29T01:21:19.145Z,101386.50
2024-02-29T01:23:48.972Z,101386.70
2024-02-29T01:26:18.747Z,101384.63
2024-02-29T01:28:48.720Z,101383.00
2024-02-29T01:31:18.502Z,101378.89
2024-02-29T01:33:48.392Z,101380.26
2024-02-29T01:36:18.138Z,101379.15
2024-02-29T01:38:47.874Z,101373.42
2024-02-29T01:41:18.843Z,101364.95
2024-02-29T01:43:54.925Z,101366.52
2024-02-29T01:46:26.004Z,101364.43
2024-02-29T01:48:57.525Z,101358.13
2024-02-29T01:51:27.889Z,101355.09
2024-02-29T01:53:59.790Z,101346.38
2024-02-29T01:56:29.887Z,101338.33
2024-02-29T01:59:03.227Z,101337.78
2024-02-29T02:01:33.395Z,101329.27
2024-02-29T02:04:03.445Z,101321.64
2024-02-29T02:06:33.643Z,101323.88
2024-02-29T02:09:03.558Z,101316.50
2024-02-29T02:11:33.233Z,101315.08
2024-02-29T02:14:05.409Z,101312.30
2024-02-29T02:16:37.288Z,101311.50
2024-02-29T02:19:12.298Z,101308.21
2024-02-29T02:21:43.289Z,101309.76
2024-02-29T02:24:13.120Z,101308.52
2024-02-29T02:26:45.281Z,101302.49
2024-02-29T02:29:17.558Z,101300.74
2024-02-29T02:31:47.370Z,101293.00
2024-02-29T02:34:17.116Z,101285.61
2024-02-29T02:36:46.833Z,101276.18
2024-02-29T02:39:16.683Z,101272.05
2024-02-29T02:41:49.414Z,101265.09
2024-02-29T02:44:19.178Z,101260.09
2024-02-29T02:46:48.973Z,101256.59
2024-02-29T02:49:18.858Z,101251.82
2024-02-29T02:51:50.953Z,101244.91
2024-02-29T02:54:20.810Z,101232.04
2024-02-29T02:56:50.518Z,101224.48
2024-02-29T02:59:20.393Z,101221.21
2024-02-29T03:01:50.499Z,101218.61
2024-02-29T03:04:20.593Z,101213.23
2024-02-29T03:06:50.442Z,101208.77
2024-02-29T03:09:22.553Z,101201.84
2024-02-29T03:11:52.738Z,101196.16
2024-02-29T03:14:22.523Z,101191.01
2024-02-29T03:16:54.698Z,101189.44
2024-02-29T03:19:24.497Z,101184.27
2024-02-29T03:21:54.230Z,101181.52
2024-02-29T03:24:24.011Z,101174.81
2024-02-29T03:26:53.733Z,101174.30
2024-02-29T03:29:23.461Z,101175.23
2024-02-29T03:31:53.198Z,101173.90
2024-02-29T03:34:22.924Z,101171.89
2024-02-29T03:36:52.652Z,101169.00
2024-02-29T03:39:22.410Z,101163.33
2024-02-29T03:41:52.017Z,101164.55
2024-02-29T03:44:21.825Z,101164.59
2024-02-29T03:46:51.674Z,101166.71
2024-02-29T03:49:21.534Z,101166.52
2024-02-29T03:51:51.958Z,101167.13
2024-02-29T03:54:24.296Z,101168.61
2024-02-29T03:56:54.036Z,101168.23
2024-02-29T03:59:24.308Z,101165.59
2024-02-29T04:01:54.328Z,101159.61
2024-02-29T04:04:24.564Z,101155.29
2024-02-29T04:06:58.136Z,101154.60
2024-02-29T04:09:27.966Z,101154.32
2024-02-29T04:11:57.725Z,101156.66
2024-02-29T04:14:29.737Z,101151.61
2024-02-29T04:16:59.396Z,101145.23
2024-02-29T04:19:29.074Z,101144.48
2024-02-29T04:21:58.763Z,101140.13
2024-02-29T04:24:28.491Z,101138.60
2024-02-29T04:26:58.208Z,101135.89
2024-02-29T04:29:27.910Z,101134.40
2024-02-29T04:31:57.607Z,101125.80
2024-02-29T04:34:27.373Z,101125.71
2024-02-29T04:36:57.131Z,101123.67
2024-02-29T04:39:26.999Z,101123.80
2024-02-29T04:41:56.881Z,101116.23
2024-02-29T04:44:26.667Z,101118.84
2024-02-29T04:46:58.726Z,101114.95
2024-02-29T04:49:28.492Z,101108.49
2024-02-29T04:51:58.319Z,101103.84
2024-02-29T04:54:28.033Z,101101.66
2024-02-29T04:56:57.743Z,101095.93
2024-02-29T04:59:27.579Z,101092.36
2024-02-29T05:01:57.297Z,101085.21
2024-02-29T05:04:27.095Z,101082.77
2024-02-29T05:06:57.497Z,101080.88
2024-02-29T05:09:27.317Z,101078.39
2024-02-29T05:11:56.980Z,101076.39
2024-02-29T05:14:29.686Z,101073.96
2024-02-29T05:16:59.361Z,101067.86
2024-02-29T05:19:29.158Z,101065.53
2024-02-29T05:21:58.965Z,101067.80
2024-02-29T05:24:28.774Z,101065.85
2024-02-29T05:26:58.486Z,101067.63
2024-02-29T05:29:31.170Z,101063.85
2024-02-29T05:32:01.840Z,101062.73
2024-02-29T05:34:33.793Z,101066.19
2024-02-29T05:37:05.705Z,101069.70
2024-02-29T05:39:36.298Z,101067.34
2024-02-29T05:42:06.573Z,101067.66
2024-02-29T05:44:36.614Z,101060.81
2024-02-29T05:47:06.626Z,101058.73
2024-02-29T05:49:36.810Z,101058.96
2024-02-29T05:52:07.519Z,101057.02
2024-02-29T05:54:39.475Z,101055.02
2024-02-29T05:57:09.244Z,101050.88
2024-02-29T05:59:38.947Z,101051.36
2024-02-29T06:02:11.323Z,101051.50
2024-02-29T06:04:43.322Z,101048.96
2024-02-29T06:07:13.112Z,101045.46
2024-02-29T06:09:43.798Z,101041.91
2024-02-29T06:12:13.564Z,101034.30
2024-02-29T06:14:43.336Z,101033.02
2024-02-29T06:17:13.073Z,101032.78
2024-02-29T06:19:42.875Z,101028.82
2024-02-29T06:22:12.677Z,101028.27
2024-02-29T06:24:42.361Z,101021.74
2024-02-29T06:27:12.076Z,101020.66
2024-02-29T06:29:41.710Z,101019.83
2024-02-29T06:32:11.509Z,101020.79
2024-02-29T06:34:41.218Z,101022.10
2024-02-29T06:37:12.890Z,101020.92
2024-02-29T06:39:42.736Z,101017.73
2024-02-29T06:42:12.521Z,101013.77
2024-02-29T06:44:42.339Z,101010.00
2024-02-29T06:47:12.080Z,101008.39
2024-02-29T06:49:41.966Z,101004.69
2024-02-29T06:52:11.754Z,101002.89
2024-02-29T06:54:43.948Z,100998.55
2024-02-29T06:57:14.618Z,100997.38
2024-02-29T06:59:48.744Z,100996.79
2024-02-29T07:02:19.655Z,100993.16
2024-02-29T07:04:49.434Z,100995.38
2024-02-29T07:07:20.432Z,100995.16
2024-02-29T07:09:54.233Z,100993.77
2024-02-29T07:12:24.028Z,100992.70
2024-02-29T07:14:53.867Z,100991.11
2024-02-29T07:17:25.923Z,100984.84
2024-02-29T07:19:55.562Z,100983.84
2024-02-29T07:22:25.330Z,100982.32
2024-02-29T07:24:55.093Z,100979.98
2024-02-29T07:27:24.924Z,100980.30
2024-02-29T07:29:54.679Z,100976.79
2024-02-29T07:32:24.417Z,100976.61
2024-02-29T07:34:54.610Z,100975.14
2024-02-29T07:37:24.458Z,100980.32
2024-02-29T07:39:54.165Z,100976.09
2024-02-29T07:42:23.897Z,100976.39
2024-02-29T07:44:56.109Z,100972.92
2024-02-29T07:47:25.887Z,100967.77
2024-02-29T07:49:55.704Z,100970.22
2024-02-29T07:52:25.509Z,100966.29
2024-02-29T07:54:55.318Z,100967.61
2024-02-29T07:57:25.896Z,100960.05
2024-02-29T07:59:55.655Z,100958.33
2024-02-29T08:02:25.487Z,100955.90
2024-02-29T08:04:55.968Z,100952.10
2024-02-29T08:07:25.739Z,100944.91
2024-02-29T08:09:55.520Z,100944.20
2024-02-29T08:12:25.274Z,100941.50
2024-02-29T08:14:55.019Z,100939.29
2024-02-29T08:17:28.368Z,100938.94
2024-02-29T08:19:58.180Z,100935.95
2024-02-29T08:22:27.930Z,100930.25
2024-02-29T08:24:58.371Z,100931.52
2024-02-29T08:27:30.642Z,100929.29
2024-02-29T08:30:00.390Z,100926.52
2024-02-29T08:32:30.244Z,100921.27
2024-02-29T08:35:00.240Z,100918.88
2024-02-29T08:37:30.082Z,100914.98
2024-02-29T08:40:06.256Z,100912.53
2024-02-29T08:42:36.225Z,100914.39
2024-02-29T08:45:10.536Z,100912.59
2024-02-29T08:47:42.843Z,100910.21
2024-02-29T08:50:13.091Z,100911.53
2024-02-29T08:52:43.419Z,100909.34
2024-02-29T08:55:13.748Z,100906.27
2024-02-29T08:57:43.659Z,100905.92
2024-02-29T09:00:17.545Z,100900.36
2024-02-29T09:02:47.375Z,100894.52
2024-02-29T09:05:17.537Z,100891.33
2024-02-29T09:07:47.268Z,100888.41
2024-02-29T09:10:17.540Z,100884.20
2024-02-29T09:12:47.957Z,100885.13
2024-02-29T09:15:18.305Z,100882.14
2024-02-29T09:17:48.415Z,100880.90
2024-02-29T09:20:18.237Z,100878.05
2024-02-29T09:22:50.346Z,100877.71
2024-02-29T09:25:20.424Z,100874.81
2024-02-29T09:27:51.112Z,100872.34
2024-02-29T09:30:20.927Z,100875.52
2024-02-29T09:32:53.635Z,100871.18
2024-02-29T09:35:23.688Z,100869.11
2024-02-29T09:37:54.076Z,100863.48
2024-02-29T09:40:24.176Z,100858.58
2024-02-29T09:42:54.298Z,100858.20
2024-02-29T09:45:26.039Z,100855.02
2024-02-29T09:47:55.905Z,100857.70
2024-02-29T09:50:25.803Z,100860.42
2024-02-29T09:52:57.012Z,100855.83
2024-02-29T09:55:29.200Z,100850.36
2024-02-29T09:58:01.150Z,100848.81
2024-02-29T10:00:31.918Z,100851.11
2024-02-29T10:03:03.722Z,100856.20
2024-02-29T10:05:35.637Z,100852.87
2024-02-29T10:08:07.113Z,100852.55
2024-02-29T10:10:37.922Z,100849.89
2024-02-29T10:13:08.092Z,100849.94
2024-02-29T10:15:38.096Z,100849.20
2024-02-29T10:18:08.745Z,100845.55
2024-02-29T10:20:38.888Z,100847.45
2024-02-29T10:23:16.170Z,100845.10
2024-02-29T10:25:46.021Z,100838.52
2024-02-29T10:28:16.025Z,100840.06
2024-02-29T10:30:57.478Z,100838.64
2024-02-29T10:33:27.554Z,100832.86
2024-02-29T10:36:00.351Z,100834.35
2024-02-29T10:38:32.380Z,100833.23
2024-02-29T10:41:02.582Z,100826.04
2024-02-29T10:43:34.199Z,100826.34
2024-02-29T10:46:08.357Z,100819.65
2024-02-29T10:48:48.709Z,100813.25
2024-02-29T10:51:27.319Z,100814.39
2024-02-29T10:54:10.316Z,100809.55
2024-02-29T10:56:43.196Z,100811.73
2024-02-29T10:59:17.298Z,100808.66
2024-02-29T11:01:48.082Z,100812.19
2024-02-29T11:04:20.526Z,100804.84
2024-02-29T11:06:51.325Z,100802.80
2024-02-29T11:09:27.419Z,100803.19
2024-02-29T11:12:10.213Z,100801.18
2024-02-29T11:14:43.786Z,100797.51
2024-02-29T11:17:18.157Z,100799.15
2024-02-29T11:19:59.145Z,100795.73
2024-02-29T11:22:36.050Z,100789.04
2024-02-29T11:25:11.980Z,100787.99
2024-02-29T11:27:51.740Z,100785.39
2024-02-29T11:30:24.408Z,100783.86
2024-02-29T11:32:54.578Z,100779.12
2024-02-29T11:35:26.559Z,100771.55
2024-02-29T11:38:01.403Z,100762.50
2024-02-29T11:40:35.307Z,100757.15
2024-02-29T11:43:08.682Z,100746.23
2024-02-29T11:45:38.963Z,100739.73
2024-02-29T11:48:09.006Z,100734.36
2024-02-29T11:50:39.973Z,100731.59
2024-02-29T11:53:10.087Z,100724.61
2024-02-29T11:55:39.942Z,100724.34
2024-02-29T11:58:10.231Z,100719.88
2024-02-29T12:00:40.062Z,100716.95
2024-02-29T12:03:10.071Z,100714.40
2024-02-29T12:05:40.158Z,100714.23
2024-02-29T12:08:10.779Z,100710.13
2024-02-29T12:10:41.002Z,100707.10
2024-02-29T12:13:10.970Z,100703.13
2024-02-29T12:15:41.187Z,100700.73
2024-02-29T12:18:12.202Z,100698.70
2024-02-29T12:20:42.595Z,100689.98
2024-02-29T12:23:16.317Z,100690.20
2024-02-29T12:25:48.562Z,100685.33
2024-02-29T12:28:19.765Z,100682.16
2024-02-29T12:30:50.133Z,100682.33
2024-02-29T12:33:22.914Z,100676.58
2024-02-29T12:35:54.207Z,100669.64
2024-02-29T12:38:27.634Z,100671.42
2024-02-29T12:40:57.687Z,100664.12
2024-02-29T12:43:27.621Z,100659.56
2024-02-29T12:45:58.225Z,100651.70
2024-02-29T12:48:28.075Z,100652.11
2024-02-29T12:50:57.877Z,100648.16
2024-02-29T12:53:27.660Z,100646.31
2024-02-29T12:55:57.419Z,100642.07
2024-02-29T12:58:27.222Z,100638.02
2024-02-29T13:00:57.093Z,100633.41
2024-02-29T13:03:27.352Z,100625.88
2024-02-29T13:05:57.203Z,100621.80
2024-02-29T13:08:27.080Z,100619.23
2024-02-29T13:10:56.807Z,100613.80
2024-02-29T13:13:26.586Z,100609.44
2024-02-29T13:15:59.186Z,100601.43
2024-02-29T13:18:29.009Z,100598.42
2024-02-29T13:20:59.422Z,100593.70
2024-02-29T13:23:29.939Z,100590.00
2024-02-29T13:26:00.196Z,100586.14
2024-02-29T13:28:30.171Z,100581.75
2024-02-29T13:31:00.014Z,100577.41
2024-02-29T13:33:32.400Z,100566.95
2024-02-29T13:36:02.315Z,100567.27
2024-02-29T13:38:32.210Z,100562.19
2024-02-29T13:41:02.011Z,100558.91
2024-02-29T13:43:31.937Z,100555.33
2024-02-29T13:46:01.635Z,100553.27
2024-02-29T13:48:31.394Z,100545.69
2024-02-29T13:51:01.135Z,100540.73
2024-02-29T13:53:30.846Z,100534.88
2024-02-29T13:56:04.280Z,100531.21
2024-02-29T13:58:34.084Z,100525.60
2024-02-29T14:01:05.923Z,100522.31
2024-02-29T14:03:39.057Z,100514.35
2024-02-29T14:06:09.557Z,100511.49
2024-02-29T14:08:39.378Z,100504.48
2024-02-29T14:11:10.117Z,100502.70
2024-02-29T14:13:40.721Z,100496.20
2024-02-29T14:16:11.723Z,100495.71
2024-02-29T14:18:41.491Z,100493.59
2024-02-29T14:21:11.362Z,100488.71
2024-02-29T14:23:41.163Z,100480.43
2024-02-29T14:26:11.974Z,100476.35
2024-02-29T14:28:44.214Z,100472.46
2024-02-29T14:31:14.845Z,100472.85
2024-02-29T14:33:44.630Z,100469.76
2024-02-29T14:36:14.651Z,100466.11
2024-02-29T14:38:46.857Z,100462.70
2024-02-29T14:41:16.683Z,100461.42
2024-02-29T14:43:48.852Z,100457.63
2024-02-29T14:46:18.797Z,100455.39
2024-02-29T14:48:48.557Z,100452.66
2024-02-29T14:51:18.376Z,100450.27
2024-02-29T14:53:51.588Z,100444.69
2024-02-29T14:56:21.681Z,100443.58
2024-02-29T14:58:51.861Z,100440.20
2024-02-29T15:01:24.257Z,100436.52
2024-02-29T15:03:54.174Z,100433.05
2024-02-29T15:06:24.806Z,100433.63
2024-02-29T15:08:54.818Z,100431.53
2024-02-29T15:11:27.800Z,100429.85
2024-02-29T15:14:00.268Z,100428.80
2024-02-29T15:16:30.421Z,100426.45
2024-02-29T15:19:00.218Z,100422.98
2024-02-29T15:21:30.954Z,100424.73
2024-02-29T15:24:05.494Z,100418.83
2024-02-29T15:26:40.011Z,100415.98
2024-02-29T15:29:09.876Z,100411.77
2024-02-29T15:31:41.249Z,100407.23
2024-02-29T15:34:11.225Z,100407.71
2024-02-29T15:36:41.002Z,100400.23
2024-02-29T15:39:10.695Z,100395.02
2024-02-29T15:41:40.482Z,100395.59
2024-02-29T15:44:10.168Z,100395.42
2024-02-29T15:46:40.410Z,100389.61
2024-02-29T15:49:12.604Z,100388.42
2024-02-29T15:51:42.422Z,100387.31
2024-02-29T15:54:12.114Z,100387.91
2024-02-29T15:56:41.913Z,100383.90
2024-02-29T15:59:15.059Z,100380.60
2024-02-29T16:01:45.057Z,100377.06
2024-02-29T16:04:14.825Z,100372.67
2024-02-29T16:06:48.215Z,100371.60
2024-02-29T16:09:18.003Z,100366.34
2024-02-29T16:11:47.840Z,100362.61
2024-02-29T16:14:17.744Z,100361.62
2024-02-29T16:16:49.142Z,100362.67
2024-02-29T16:19:21.540Z,100358.73
2024-02-29T16:21:53.823Z,100357.57
2024-02-29T16:24:23.780Z,100353.82
2024-02-29T16:26:53.679Z,100351.00
2024-02-29T16:29:23.622Z,100348.48
2024-02-29T16:31:53.360Z,100347.63
2024-02-29T16:34:23.578Z,100343.27
2024-02-29T16:36:53.381Z,100338.94
2024-02-29T16:39:25.615Z,100337.19
2024-02-29T16:41:55.473Z,100329.31
2024-02-29T16:44:27.779Z,100329.95
2024-02-29T16:46:57.608Z,100326.36
2024-02-29T16:49:27.598Z,100322.64
2024-02-29T16:51:58.652Z,100317.77
2024-02-29T16:54:28.561Z,100318.06
2024-02-29T16:57:00.680Z,100314.04
2024-02-29T16:59:30.761Z,100309.64
2024-02-29T17:02:00.756Z,100308.42
2024-02-29T17:04:34.460Z,100304.48
2024-02-29T17:07:05.871Z,100302.60
2024-02-29T17:09:38.024Z,100299.95
2024-02-29T17:12:12.969Z,100301.20
2024-02-29T17:14:42.759Z,100299.93
2024-02-29T17:17:12.472Z,100297.25
2024-02-29T17:19:42.764Z,100296.78
2024-02-29T17:22:12.626Z,100298.70
2024-02-29T17:24:43.076Z,100299.71
2024-02-29T17:27:12.794Z,100297.17
2024-02-29T17:29:48.167Z,100298.56
2024-02-29T17:32:17.885Z,100293.88
2024-02-29T17:34:49.023Z,100292.25
2024-02-29T17:37:21.932Z,100294.60
2024-02-29T17:39:52.771Z,100289.55
2024-02-29T17:42:22.512Z,100289.58
2024-02-29T17:44:52.274Z,100288.12
2024-02-29T17:47:22.085Z,100284.80
2024-02-29T17:49:54.337Z,100287.20
2024-02-29T17:52:24.118Z,100288.45
2024-02-29T17:54:55.344Z,100284.93
2024-02-29T17:57:27.282Z,100285.51
2024-02-29T17:59:57.319Z,100282.95
2024-02-29T18:02:28.282Z,100281.66
2024-02-29T18:05:00.042Z,100277.73
2024-02-29T18:07:32.288Z,100276.42
2024-02-29T18:10:02.988Z,100274.66
2024-02-29T18:12:34.049Z,100270.33
2024-02-29T18:15:04.125Z,100268.52
2024-02-29T18:17:33.908Z,100264.02
2024-02-29T18:20:07.473Z,100261.65
2024-02-29T18:22:37.195Z,100257.63
2024-02-29T18:25:08.326Z,100249.64
2024-02-29T18:27:39.301Z,100249.97
2024-02-29T18:30:11.272Z,100245.02
2024-02-29T18:32:41.033Z,100246.15
2024-02-29T18:35:11.663Z,100247.67
2024-02-29T18:37:43.775Z,100239.16
2024-02-29T18:40:16.228Z,100235.94
2024-02-29T18:42:46.210Z,100237.48
2024-02-29T18:45:19.392Z,100232.80
2024-02-29T18:47:52.365Z,100232.20
2024-02-29T18:50:23.091Z,100228.94
2024-02-29T18:52:52.765Z,100226.34
2024-02-29T18:55:24.471Z,100223.74
2024-02-29T18:57:54.519Z,100221.39
2024-02-29T19:00:25.312Z,100217.60
2024-02-29T19:02:57.806Z,100214.69
2024-02-29T19:05:27.592Z,100212.59
2024-02-29T19:07:57.368Z,100211.10
2024-02-29T19:10:27.118Z,100213.03
2024-02-29T19:12:56.916Z,100213.27
2024-02-29T19:15:26.821Z,100210.85
2024-02-29T19:17:56.573Z,100212.94
2024-02-29T19:20:26.294Z,100213.13
2024-02-29T19:22:58.659Z,100214.66
2024-02-29T19:25:28.342Z,100213.34
2024-02-29T19:27:59.020Z,100207.95
2024-02-29T19:30:28.776Z,100205.62
2024-02-29T19:32:58.507Z,100196.05
2024-02-29T19:35:32.236Z,100193.98
2024-02-29T19:38:02.012Z,100192.20
2024-02-29T19:40:31.770Z,100194.13
2024-02-29T19:43:04.108Z,100192.23
2024-02-29T19:45:36.002Z,100190.16
2024-02-29T19:48:06.895Z,100189.02
2024-02-29T19:50:36.662Z,100182.86
2024-02-29T19:53:06.488Z,100178.80
2024-02-29T19:55:38.221Z,100175.58
2024-02-29T19:58:07.995Z,100172.38
2024-02-29T20:00:37.787Z,100170.46
2024-02-29T20:03:08.250Z,100165.39
2024-02-29T20:05:38.798Z,100159.77
2024-02-29T20:08:11.094Z,100156.49
2024-02-29T20:10:43.322Z,100159.91
2024-02-29T20:13:13.215Z,100161.59
2024-02-29T20:15:42.974Z,100167.95
2024-02-29T20:18:12.836Z,100169.38
2024-02-29T20:20:45.082Z,100164.91
2024-02-29T20:23:14.934Z,100166.52
2024-02-29T20:25:44.909Z,100162.45
2024-02-29T20:28:14.765Z,100157.31
2024-02-29T20:30:44.456Z,100160.23
2024-02-29T20:33:17.579Z,100156.98
2024-02-29T20:35:47.343Z,100154.37
2024-02-29T20:38:16.993Z,100153.45
2024-02-29T20:40:46.748Z,100144.17
2024-02-29T20:43:16.517Z,100145.89
2024-02-29T20:45:46.743Z,100146.59
2024-02-29T20:48:17.305Z,100143.76
2024-02-29T20:50:47.089Z,100141.58
2024-02-29T20:53:17.397Z,100133.17
2024-02-29T20:55:47.167Z,100127.73
2024-02-29T20:58:17.001Z,100126.50
2024-02-29T21:00:46.918Z,100124.15
2024-02-29T21:03:16.707Z,100122.00
2024-02-29T21:05:47.101Z,100114.73
2024-02-29T21:08:19.645Z,100112.86
2024-02-29T21:10:52.109Z,100112.89
2024-02-29T21:13:21.994Z,100106.80
2024-02-29T21:15:54.886Z,100103.18
2024-02-29T21:18:24.773Z,100096.58
2024-02-29T21:20:57.678Z,100091.92
2024-02-29T21:23:27.486Z,100084.70
2024-02-29T21:25:57.569Z,100083.34
2024-02-29T21:28:27.476Z,100081.23
2024-02-29T21:30:57.435Z,100082.36
2024-02-29T21:33:27.204Z,100080.63
2024-02-29T21:35:59.518Z,100075.77
2024-02-29T21:38:29.248Z,100074.95
2024-02-29T21:40:59.119Z,100077.48
2024-02-29T21:43:28.966Z,100074.17
2024-02-29T21:45:58.756Z,100078.05
2024-02-29T21:48:30.844Z,100073.77
2024-02-29T21:51:01.425Z,100072.56
2024-02-29T21:53:31.201Z,100071.06
2024-02-29T21:56:00.908Z,100071.75
2024-02-29T21:58:33.112Z,100061.64
2024-02-29T22:01:02.902Z,100057.47
2024-02-29T22:03:32.694Z,100056.48
2024-02-29T22:06:02.451Z,100053.40
2024-02-29T22:08:32.308Z,100051.59
2024-02-29T22:11:02.185Z,100050.29
2024-02-29T22:13:34.739Z,100052.93
2024-02-29T22:16:04.936Z,100049.05
2024-02-29T22:18:36.031Z,100041.74
2024-02-29T22:21:06.169Z,100037.84
2024-02-29T22:23:35.997Z,100036.48
2024-02-29T22:26:06.009Z,100037.41
2024-02-29T22:28:35.993Z,100028.71
2024-02-29T22:31:06.231Z,100030.99
2024-02-29T22:33:36.032Z,100026.15
2024-02-29T22:36:06.566Z,100029.83
2024-02-29T22:38:36.395Z,100025.46
2024-02-29T22:41:06.503Z,100021.98
2024-02-29T22:43:36.686Z,100022.89
2024-02-29T22:46:06.663Z,100020.13
2024-02-29T22:48:36.603Z,100017.48
2024-02-29T22:51:06.813Z,100015.90
2024-02-29T22:53:37.501Z,100014.92
2024-02-29T22:56:08.020Z,100013.25
2024-02-29T22:58:37.833Z,100008.08
2024-02-29T23:01:07.909Z,100008.85
2024-02-29T23:03:37.785Z,100002.67
2024-02-29T23:06:07.828Z,100000.11
2024-02-29T23:08:37.531Z,99994.45
2024-02-29T23:11:07.484Z,99998.12
2024-02-29T23:13:37.388Z,99992.83
2024-02-29T23:16:07.461Z,99991.50
2024-02-29T23:18:37.157Z,99992.19
2024-02-29T23:21:08.575Z,99988.92
2024-02-29T23:23:38.258Z,99981.02
2024-02-29T23:26:08.557Z,99980.45
2024-02-29T23:28:38.425Z,99975.41
2024-02-29T23:31:08.261Z,99975.89
2024-02-29T23:33:38.336Z,99975.23
2024-02-29T23:36:08.679Z,99972.86
2024-02-29T23:38:40.664Z,99971.04
2024-02-29T23:41:10.354Z,99966.45
2024-02-29T23:43:40.025Z,99963.77
2024-02-29T23:46:10.110Z,99963.75
2024-02-29T23:48:39.844Z,99960.38
2024-02-29T23:51:10.425Z,99960.23
2024-02-29T23:53:42.611Z,99958.58
2024-02-29T23:56:12.297Z,99955.05
2024-02-29T23:58:42.719Z,99951.99
